createdAt,value
2019-03-26T00:01:32.899Z,54.00
2019-03-26T00:04:05.651Z,54.10
2019-03-26T00:06:27.827Z,54.10
2019-03-26T00:08:54.204Z,54.10
2019-03-26T00:11:20.798Z,54.10
2019-03-26T00:13:47.106Z,54.10
2019-03-26T00:16:13.475Z,54.10
2019-03-26T00:18:39.746Z,54.00
2019-03-26T00:21:06.066Z,54.00
2019-03-26T00:23:32.336Z,54.10
2019-03-26T00:25:58.720Z,54.60
2019-03-26T00:28:24.993Z,54.10
2019-03-26T00:30:51.377Z,54.20
2019-03-26T00:33:17.641Z,54.30
2019-03-26T00:35:44.158Z,54.20
2019-03-26T00:38:10.747Z,54.30
2019-03-26T00:40:40.083Z,54.30
2019-03-26T00:43:05.208Z,54.20
2019-03-26T00:45:31.494Z,54.20
2019-03-26T00:47:57.770Z,54.30
2019-03-26T00:50:24.446Z,54.20
2019-03-26T00:52:50.720Z,54.20
2019-03-26T00:55:22.467Z,54.30
2019-03-26T00:57:45.302Z,54.40
2019-03-26T01:00:12.606Z,54.40
2019-03-26T01:02:39.131Z,54.40
2019-03-26T01:05:05.926Z,54.50
2019-03-26T01:07:32.583Z,54.50
2019-03-26T01:09:59.130Z,54.50
2019-03-26T01:12:25.393Z,54.60
2019-03-26T01:14:51.662Z,54.50
2019-03-26T01:17:18.055Z,54.40
2019-03-26T01:19:44.343Z,54.50
2019-03-26T01:22:10.642Z,54.50
2019-03-26T01:24:36.994Z,54.50
2019-03-26T01:27:03.398Z,54.60
2019-03-26T01:29:29.846Z,54.60
2019-03-26T01:31:56.140Z,54.60
2019-03-26T01:34:22.399Z,54.60
2019-03-26T01:36:48.706Z,54.60
2019-03-26T01:39:15.083Z,54.60
2019-03-26T01:41:41.570Z,54.70
2019-03-26T01:44:07.830Z,54.70
2019-03-26T01:46:34.311Z,54.70
2019-03-26T01:49:01.117Z,54.80
2019-03-26T01:51:27.531Z,54.90
2019-03-26T01:53:53.912Z,55.00
2019-03-26T01:56:21.730Z,55.00
2019-03-26T01:58:48.036Z,54.90
2019-03-26T02:01:14.305Z,54.90
2019-03-26T02:03:40.698Z,54.90
2019-03-26T02:06:06.959Z,55.00
2019-03-26T02:08:33.590Z,55.00
2019-03-26T02:10:59.861Z,55.10
2019-03-26T02:13:26.515Z,55.10
2019-03-26T02:15:53.198Z,55.20
2019-03-26T02:18:19.491Z,55.20
2019-03-26T02:20:46.083Z,55.20
2019-03-26T02:23:12.375Z,55.20
2019-03-26T02:25:38.642Z,55.30
2019-03-26T02:28:05.035Z,55.30
2019-03-26T02:30:31.294Z,55.30
2019-03-26T02:32:57.682Z,55.30
2019-03-26T02:35:24.176Z,55.20
2019-03-26T02:37:50.588Z,55.20
2019-03-26T02:40:17.051Z,55.20
2019-03-26T02:42:43.372Z,55.20
2019-03-26T02:45:09.842Z,55.20
2019-03-26T02:47:36.423Z,55.10
2019-03-26T02:50:05.962Z,55.10
2019-03-26T02:52:32.789Z,55.20
2019-03-26T02:55:00.567Z,55.20
2019-03-26T02:57:26.947Z,55.20
2019-03-26T02:59:53.435Z,55.30
2019-03-26T03:02:19.832Z,55.30
2019-03-26T03:04:46.191Z,55.30
2019-03-26T03:07:12.451Z,55.30
2019-03-26T03:09:38.749Z,55.30
2019-03-26T03:12:05.225Z,55.30
2019-03-26T03:14:31.602Z,55.30
2019-03-26T03:16:58.066Z,55.20
2019-03-26T03:19:24.356Z,55.20
2019-03-26T03:21:50.815Z,55.00
2019-03-26T03:24:17.095Z,55.20
2019-03-26T03:26:43.360Z,55.10
2019-03-26T03:29:09.831Z,55.20
2019-03-26T03:31:36.100Z,55.20
2019-03-26T03:34:02.393Z,55.30
2019-03-26T03:36:28.774Z,55.20
2019-03-26T03:38:55.071Z,55.20
2019-03-26T03:41:21.745Z,55.20
2019-03-26T03:43:48.128Z,55.20
2019-03-26T03:46:14.821Z,55.30
2019-03-26T03:48:42.798Z,55.30
2019-03-26T03:51:11.787Z,55.20
2019-03-26T03:53:38.949Z,55.20
2019-03-26T03:56:07.336Z,55.20
2019-03-26T03:58:35.710Z,55.10
2019-03-26T04:01:02.228Z,55.20
2019-03-26T04:03:28.599Z,55.30
2019-03-26T04:06:08.235Z,55.20
2019-03-26T04:08:23.232Z,55.20
2019-03-26T04:10:49.893Z,55.20
2019-03-26T04:13:16.160Z,55.20
2019-03-26T04:15:42.660Z,55.20
2019-03-26T04:18:09.027Z,55.10
2019-03-26T04:20:35.417Z,55.20
2019-03-26T04:23:02.115Z,55.20
2019-03-26T04:25:28.646Z,55.10
2019-03-26T04:27:54.913Z,55.10
2019-03-26T04:30:29.467Z,55.10
2019-03-26T04:32:56.235Z,55.00
2019-03-26T04:35:22.508Z,55.00
2019-03-26T04:37:49.278Z,55.00
2019-03-26T04:40:15.648Z,55.30
2019-03-26T04:42:41.936Z,55.00
2019-03-26T04:45:08.581Z,55.00
2019-03-26T04:47:35.198Z,54.90
2019-03-26T04:50:01.674Z,54.90
2019-03-26T04:52:27.974Z,54.90
2019-03-26T04:54:54.331Z,55.40
2019-03-26T04:57:20.610Z,55.00
2019-03-26T04:59:46.892Z,55.00
2019-03-26T05:02:13.591Z,55.00
2019-03-26T05:04:39.966Z,55.10
2019-03-26T05:07:06.234Z,55.00
2019-03-26T05:09:32.819Z,55.00
2019-03-26T05:11:59.954Z,54.90
2019-03-26T05:14:26.266Z,54.90
2019-03-26T05:16:53.039Z,54.90
2019-03-26T05:19:19.322Z,54.90
2019-03-26T05:21:45.897Z,54.90
2019-03-26T05:24:12.195Z,54.80
2019-03-26T05:26:38.850Z,54.90
2019-03-26T05:29:05.131Z,54.90
2019-03-26T05:31:31.719Z,54.80
2019-03-26T05:33:58.009Z,54.80
2019-03-26T05:36:24.675Z,54.70
2019-03-26T05:38:50.946Z,54.60
2019-03-26T05:41:17.407Z,54.60
2019-03-26T05:43:43.987Z,54.50
2019-03-26T05:46:10.275Z,54.60
2019-03-26T05:48:36.897Z,54.60
2019-03-26T05:51:03.237Z,54.60
2019-03-26T05:53:29.695Z,54.40
2019-03-26T05:55:56.077Z,54.50
2019-03-26T05:58:22.674Z,54.40
2019-03-26T06:00:48.975Z,54.40
2019-03-26T06:03:15.530Z,54.40
2019-03-26T06:05:41.915Z,54.30
2019-03-26T06:08:08.634Z,54.40
2019-03-26T06:10:35.391Z,54.40
2019-03-26T06:13:01.660Z,54.30
2019-03-26T06:15:28.335Z,54.20
2019-03-26T06:17:57.405Z,54.20
2019-03-26T06:20:23.142Z,54.00
2019-03-26T06:22:49.444Z,54.00
2019-03-26T06:25:15.715Z,54.00
2019-03-26T06:27:42.186Z,54.10
2019-03-26T06:30:09.395Z,54.10
2019-03-26T06:32:36.016Z,54.00
2019-03-26T06:35:07.615Z,53.90
2019-03-26T06:37:34.346Z,53.80
2019-03-26T06:40:00.742Z,53.80
2019-03-26T06:42:27.397Z,53.90
2019-03-26T06:44:53.854Z,53.80
2019-03-26T06:47:20.142Z,53.60
2019-03-26T06:49:46.407Z,53.50
2019-03-26T06:52:12.778Z,53.40
2019-03-26T06:54:39.038Z,53.40
2019-03-26T06:57:05.314Z,53.40
2019-03-26T06:59:31.699Z,53.20
2019-03-26T07:01:58.457Z,52.90
2019-03-26T07:04:24.903Z,53.00
2019-03-26T07:06:51.254Z,53.00
2019-03-26T07:09:17.864Z,52.90
2019-03-26T07:11:44.315Z,52.80
2019-03-26T07:14:10.863Z,52.80
2019-03-26T07:16:37.141Z,52.80
2019-03-26T07:19:03.896Z,52.70
2019-03-26T07:21:30.259Z,52.70
2019-03-26T07:23:56.854Z,52.70
2019-03-26T07:26:23.418Z,52.70
2019-03-26T07:28:49.694Z,52.70
2019-03-26T07:31:16.076Z,53.20
2019-03-26T07:33:42.803Z,52.70
2019-03-26T07:36:09.439Z,52.60
2019-03-26T07:38:35.695Z,52.60
2019-03-26T07:41:02.091Z,52.50
2019-03-26T07:43:28.447Z,52.50
2019-03-26T07:45:54.739Z,52.50
2019-03-26T07:48:21.094Z,52.50
2019-03-26T07:50:47.647Z,52.30
2019-03-26T07:53:13.915Z,52.20
2019-03-26T07:55:40.308Z,52.00
2019-03-26T07:58:07.135Z,52.10
2019-03-26T08:00:34.909Z,52.10
2019-03-26T08:03:03.478Z,52.10
2019-03-26T08:05:30.263Z,52.10
2019-03-26T08:07:58.506Z,52.00
2019-03-26T08:10:24.838Z,52.10
2019-03-26T08:12:51.500Z,52.00
2019-03-26T08:15:20.183Z,52.00
2019-03-26T08:17:46.109Z,52.00
2019-03-26T08:20:12.864Z,52.10
2019-03-26T08:22:39.555Z,52.10
2019-03-26T08:25:06.427Z,52.00
2019-03-26T08:27:32.823Z,52.00
2019-03-26T08:29:59.100Z,52.00
2019-03-26T08:32:25.529Z,51.90
2019-03-26T08:34:51.866Z,51.90
2019-03-26T08:37:18.174Z,51.90
2019-03-26T08:39:44.514Z,52.10
2019-03-26T08:42:10.783Z,52.00
2019-03-26T08:44:37.392Z,52.10
2019-03-26T08:47:04.094Z,52.00
2019-03-26T08:49:31.154Z,51.90
2019-03-26T08:51:57.987Z,52.00
2019-03-26T08:54:24.274Z,51.90
2019-03-26T08:56:50.534Z,51.90
2019-03-26T08:59:16.997Z,51.90
2019-03-26T09:01:43.259Z,51.70
2019-03-26T09:04:10.759Z,51.10
2019-03-26T09:06:37.022Z,51.50
2019-03-26T09:09:06.206Z,51.50
2019-03-26T09:11:32.468Z,51.30
2019-03-26T09:13:58.958Z,51.20
2019-03-26T09:16:25.222Z,51.20
2019-03-26T09:18:51.519Z,51.40
2019-03-26T09:21:17.794Z,51.70
2019-03-26T09:23:44.074Z,52.00
2019-03-26T09:26:10.550Z,52.20
2019-03-26T09:28:36.815Z,52.10
2019-03-26T09:31:03.504Z,52.10
2019-03-26T09:33:30.214Z,52.00
2019-03-26T09:35:56.602Z,51.50
2019-03-26T09:38:22.881Z,52.40
2019-03-26T09:40:49.171Z,52.80
2019-03-26T09:43:15.460Z,52.60
2019-03-26T09:45:41.847Z,52.10
2019-03-26T09:48:08.315Z,51.80
2019-03-26T09:50:35.005Z,51.30
2019-03-26T09:53:01.991Z,50.70
2019-03-26T09:55:28.283Z,50.40
2019-03-26T09:57:54.542Z,50.10
2019-03-26T10:00:20.835Z,50.00
2019-03-26T10:02:47.209Z,49.60
2019-03-26T10:05:13.615Z,49.40
2019-03-26T10:07:39.996Z,49.20
2019-03-26T10:10:08.392Z,47.10
2019-03-26T10:12:34.892Z,48.00
2019-03-26T10:15:04.750Z,48.10
2019-03-26T10:17:31.034Z,48.10
2019-03-26T10:19:57.299Z,48.40
2019-03-26T10:22:23.755Z,48.10
2019-03-26T10:24:50.023Z,48.20
2019-03-26T10:27:16.787Z,48.30
2019-03-26T10:29:44.155Z,48.10
2019-03-26T10:32:10.805Z,48.20
2019-03-26T10:34:37.518Z,48.20
2019-03-26T10:37:04.010Z,48.30
2019-03-26T10:39:30.311Z,48.30
2019-03-26T10:41:56.670Z,48.30
2019-03-26T10:44:22.967Z,48.20
2019-03-26T10:46:50.426Z,48.00
2019-03-26T10:49:17.818Z,47.80
2019-03-26T10:51:44.282Z,47.70
2019-03-26T10:54:10.570Z,47.40
2019-03-26T10:56:36.940Z,47.10
2019-03-26T10:59:04.311Z,47.10
2019-03-26T11:01:30.807Z,46.80
2019-03-26T11:03:57.186Z,47.20
2019-03-26T11:06:23.573Z,47.30
2019-03-26T11:08:49.939Z,47.20
2019-03-26T11:11:36.447Z,46.70
2019-03-26T11:14:03.475Z,47.50
2019-03-26T11:16:29.836Z,48.20
2019-03-26T11:18:56.114Z,48.60
2019-03-26T11:21:22.492Z,48.90
2019-03-26T11:23:48.986Z,48.40
2019-03-26T11:26:15.260Z,47.90
2019-03-26T11:28:41.658Z,47.40
2019-03-26T11:31:08.027Z,46.00
2019-03-26T11:33:34.405Z,46.80
2019-03-26T11:36:00.894Z,47.10
2019-03-26T11:38:27.259Z,47.30
2019-03-26T11:40:53.665Z,47.60
2019-03-26T11:43:20.042Z,47.20
2019-03-26T11:45:46.599Z,46.90
2019-03-26T11:48:12.959Z,46.50
2019-03-26T11:50:39.242Z,45.90
2019-03-26T11:53:05.794Z,45.50
2019-03-26T11:55:32.101Z,45.70
2019-03-26T11:57:58.460Z,46.00
2019-03-26T12:00:29.589Z,45.80
2019-03-26T12:02:56.245Z,47.60
2019-03-26T12:05:22.658Z,47.80
2019-03-26T12:07:49.306Z,47.80
2019-03-26T12:10:15.803Z,46.30
2019-03-26T12:12:42.101Z,46.70
2019-03-26T12:15:08.994Z,46.70
2019-03-26T12:17:35.274Z,45.90
2019-03-26T12:20:02.147Z,41.60
2019-03-26T12:22:31.457Z,42.00
2019-03-26T12:24:57.701Z,41.00
2019-03-26T12:27:23.995Z,41.20
2019-03-26T12:29:50.358Z,40.60
2019-03-26T12:32:17.351Z,41.10
2019-03-26T12:34:43.808Z,41.30
2019-03-26T12:37:10.193Z,40.90
2019-03-26T12:39:36.452Z,41.50
2019-03-26T12:42:03.156Z,41.50
2019-03-26T12:44:29.804Z,41.40
2019-03-26T12:46:58.351Z,41.30
2019-03-26T12:49:24.616Z,41.80
2019-03-26T12:51:51.008Z,42.40
2019-03-26T12:54:17.372Z,41.90
2019-03-26T12:56:43.743Z,41.60
2019-03-26T12:59:10.467Z,42.30
2019-03-26T13:01:36.745Z,42.20
2019-03-26T13:04:12.461Z,42.20
2019-03-26T13:06:31.397Z,41.30
2019-03-26T13:08:57.783Z,41.30
2019-03-26T13:11:24.039Z,41.40
2019-03-26T13:13:50.756Z,41.40
2019-03-26T13:16:17.223Z,41.30
2019-03-26T13:18:43.858Z,41.60
2019-03-26T13:21:10.828Z,41.80
2019-03-26T13:23:37.115Z,42.00
2019-03-26T13:26:03.378Z,42.10
2019-03-26T13:28:29.869Z,42.10
2019-03-26T13:30:56.244Z,42.20
2019-03-26T13:33:22.613Z,42.20
2019-03-26T13:35:50.089Z,42.50
2019-03-26T13:38:16.358Z,42.90
2019-03-26T13:40:42.851Z,43.60
2019-03-26T13:43:09.841Z,44.40
2019-03-26T13:45:37.338Z,45.20
2019-03-26T13:48:04.027Z,45.50
2019-03-26T13:50:30.317Z,45.80
2019-03-26T13:52:56.785Z,45.20
2019-03-26T13:55:23.321Z,43.40
2019-03-26T13:57:49.655Z,42.80
2019-03-26T14:00:19.834Z,42.20
2019-03-26T14:02:46.419Z,41.80
2019-03-26T14:05:24.073Z,41.60
2019-03-26T14:07:50.854Z,41.20
2019-03-26T14:10:17.344Z,41.10
2019-03-26T14:12:43.727Z,41.10
2019-03-26T14:15:10.301Z,41.00
2019-03-26T14:17:36.620Z,41.10
2019-03-26T14:20:04.499Z,40.70
2019-03-26T14:22:30.896Z,41.00
2019-03-26T14:24:57.536Z,41.70
2019-03-26T14:27:24.019Z,41.40
2019-03-26T14:29:50.695Z,41.50
2019-03-26T14:32:17.010Z,41.70
2019-03-26T14:34:43.368Z,41.70
2019-03-26T14:37:09.757Z,41.30
2019-03-26T14:39:36.023Z,41.50
2019-03-26T14:42:02.506Z,41.60
2019-03-26T14:44:28.827Z,41.80
2019-03-26T14:46:55.204Z,41.80
2019-03-26T14:49:21.562Z,42.00
2019-03-26T14:51:47.926Z,42.00
2019-03-26T14:54:14.424Z,42.10
2019-03-26T14:56:40.884Z,42.20
2019-03-26T14:59:07.219Z,42.30
2019-03-26T15:01:33.603Z,42.30
2019-03-26T15:03:59.886Z,42.30
2019-03-26T15:06:26.426Z,42.40
2019-03-26T15:08:52.915Z,42.60
2019-03-26T15:11:19.378Z,42.50
2019-03-26T15:13:49.357Z,42.50
2019-03-26T15:16:14.614Z,42.60
2019-03-26T15:18:40.998Z,42.60
2019-03-26T15:21:07.382Z,42.70
2019-03-26T15:23:33.768Z,42.60
2019-03-26T15:26:00.126Z,42.70
2019-03-26T15:28:26.762Z,42.70
2019-03-26T15:30:53.049Z,42.80
2019-03-26T15:33:19.509Z,42.90
2019-03-26T15:35:46.162Z,43.00
2019-03-26T15:38:12.539Z,43.00
2019-03-26T15:40:39.018Z,43.10
2019-03-26T15:43:05.866Z,43.20
2019-03-26T15:45:33.227Z,43.20
2019-03-26T15:47:59.686Z,43.30
2019-03-26T15:50:37.696Z,43.40
2019-03-26T15:53:04.463Z,43.50
2019-03-26T15:55:31.114Z,43.50
2019-03-26T15:57:59.753Z,43.50
2019-03-26T16:00:28.282Z,43.60
2019-03-26T16:02:54.921Z,43.70
2019-03-26T16:05:21.203Z,43.80
2019-03-26T16:07:47.820Z,43.80
2019-03-26T16:10:15.823Z,44.00
2019-03-26T16:12:42.198Z,43.90
2019-03-26T16:15:08.857Z,43.90
2019-03-26T16:17:35.761Z,43.90
2019-03-26T16:20:04.428Z,43.90
2019-03-26T16:22:31.812Z,43.90
2019-03-26T16:24:58.182Z,43.90
2019-03-26T16:27:24.475Z,44.00
2019-03-26T16:29:50.863Z,43.90
2019-03-26T16:32:17.158Z,44.00
2019-03-26T16:34:43.782Z,44.00
2019-03-26T16:37:10.071Z,44.00
2019-03-26T16:39:36.341Z,44.00
2019-03-26T16:42:02.739Z,44.10
2019-03-26T16:44:29.516Z,44.00
2019-03-26T16:46:56.805Z,44.10
2019-03-26T16:49:23.284Z,44.10
2019-03-26T16:51:49.689Z,44.20
2019-03-26T16:54:16.065Z,44.20
2019-03-26T16:56:43.525Z,44.20
2019-03-26T16:59:10.009Z,44.30
2019-03-26T17:01:36.374Z,44.40
2019-03-26T17:04:02.663Z,44.50
2019-03-26T17:06:29.122Z,44.40
2019-03-26T17:08:55.654Z,45.00
2019-03-26T17:11:22.010Z,44.60
2019-03-26T17:13:49.498Z,44.60
2019-03-26T17:16:15.788Z,44.70
2019-03-26T17:18:42.546Z,44.70
2019-03-26T17:21:08.814Z,44.70
2019-03-26T17:23:35.162Z,44.70
2019-03-26T17:26:02.927Z,44.70
2019-03-26T17:28:29.258Z,44.80
2019-03-26T17:30:55.657Z,44.80
2019-03-26T17:33:22.294Z,44.90
2019-03-26T17:35:48.597Z,44.90
2019-03-26T17:38:14.960Z,44.90
2019-03-26T17:40:41.342Z,44.90
2019-03-26T17:43:07.602Z,45.00
2019-03-26T17:45:33.908Z,45.00
2019-03-26T17:48:00.567Z,45.00
2019-03-26T17:50:27.206Z,45.00
2019-03-26T17:52:53.476Z,45.10
2019-03-26T17:55:19.971Z,45.10
2019-03-26T17:57:46.613Z,45.20
2019-03-26T18:00:17.188Z,45.10
2019-03-26T18:02:43.555Z,45.20
2019-03-26T18:05:24.658Z,45.20
2019-03-26T18:07:51.411Z,45.30
2019-03-26T18:10:17.777Z,45.20
2019-03-26T18:12:46.571Z,45.20
2019-03-26T18:15:12.354Z,45.30
2019-03-26T18:17:38.901Z,45.30
2019-03-26T18:20:05.842Z,45.30
2019-03-26T18:22:32.155Z,45.40
2019-03-26T18:24:58.883Z,45.90
2019-03-26T18:27:25.537Z,45.40
2019-03-26T18:29:51.886Z,45.40
2019-03-26T18:32:18.610Z,45.40
2019-03-26T18:34:44.876Z,45.50
2019-03-26T18:37:11.159Z,45.50
2019-03-26T18:39:37.419Z,45.60
2019-03-26T18:42:04.029Z,45.60
2019-03-26T18:44:31.006Z,45.90
2019-03-26T18:46:57.505Z,45.70
2019-03-26T18:49:23.811Z,45.80
2019-03-26T18:51:50.216Z,45.80
2019-03-26T18:54:16.608Z,45.90
2019-03-26T18:56:42.870Z,45.90
2019-03-26T18:59:09.163Z,45.90
2019-03-26T19:01:35.632Z,46.00
2019-03-26T19:04:02.161Z,45.90
2019-03-26T19:06:28.732Z,46.00
2019-03-26T19:08:55.395Z,46.00
2019-03-26T19:11:21.776Z,46.10
2019-03-26T19:13:48.174Z,46.30
2019-03-26T19:16:14.645Z,46.20
2019-03-26T19:18:41.157Z,46.20
2019-03-26T19:21:07.546Z,46.20
2019-03-26T19:23:34.223Z,46.30
2019-03-26T19:26:01.042Z,46.20
2019-03-26T19:28:27.331Z,46.20
2019-03-26T19:30:53.978Z,46.30
2019-03-26T19:33:20.847Z,46.30
2019-03-26T19:35:47.322Z,46.30
2019-03-26T19:38:13.786Z,46.30
2019-03-26T19:40:40.212Z,46.40
2019-03-26T19:43:11.135Z,46.30
2019-03-26T19:45:34.862Z,46.40
2019-03-26T19:48:01.391Z,46.50
2019-03-26T19:50:27.883Z,46.40
2019-03-26T19:52:54.287Z,46.40
2019-03-26T19:55:20.776Z,46.50
2019-03-26T19:57:47.475Z,46.50
2019-03-26T20:00:14.940Z,46.60
2019-03-26T20:02:41.923Z,46.50
2019-03-26T20:05:09.219Z,47.00
2019-03-26T20:07:35.485Z,46.60
2019-03-26T20:10:04.823Z,46.60
2019-03-26T20:12:31.150Z,46.70
2019-03-26T20:14:57.448Z,46.70
2019-03-26T20:17:24.027Z,46.70
2019-03-26T20:19:50.295Z,46.80
2019-03-26T20:22:16.694Z,46.80
2019-03-26T20:24:43.132Z,46.90
2019-03-26T20:27:09.622Z,46.90
2019-03-26T20:29:36.291Z,46.90
2019-03-26T20:32:02.687Z,47.00
2019-03-26T20:34:29.046Z,47.00
2019-03-26T20:36:55.922Z,47.10
2019-03-26T20:39:22.181Z,47.00
2019-03-26T20:41:48.786Z,47.00
2019-03-26T20:44:15.056Z,47.10
2019-03-26T20:46:42.975Z,47.00
2019-03-26T20:49:09.439Z,47.00
2019-03-26T20:51:35.865Z,47.10
2019-03-26T20:54:02.350Z,47.10
2019-03-26T20:56:29.110Z,47.10
2019-03-26T20:58:56.247Z,47.10
2019-03-26T21:01:22.686Z,47.20
2019-03-26T21:03:49.166Z,47.20
2019-03-26T21:06:15.451Z,47.10
2019-03-26T21:08:41.738Z,47.30
2019-03-26T21:11:08.201Z,47.10
2019-03-26T21:13:34.783Z,47.10
2019-03-26T21:16:01.499Z,47.40
2019-03-26T21:18:27.895Z,47.30
2019-03-26T21:20:54.391Z,47.30
2019-03-26T21:23:21.119Z,47.30
2019-03-26T21:25:47.718Z,47.30
2019-03-26T21:28:14.507Z,47.30
2019-03-26T21:30:40.878Z,47.30
2019-03-26T21:33:07.367Z,47.60
2019-03-26T21:35:33.763Z,47.50
2019-03-26T21:38:00.139Z,47.40
2019-03-26T21:40:26.679Z,47.40
2019-03-26T21:42:52.942Z,47.50
2019-03-26T21:45:29.137Z,47.60
2019-03-26T21:47:55.494Z,47.70
2019-03-26T21:50:21.785Z,47.80
2019-03-26T21:52:48.143Z,47.80
2019-03-26T21:55:15.085Z,47.70
2019-03-26T21:57:41.342Z,47.80
2019-03-26T22:00:09.059Z,47.70
2019-03-26T22:02:37.302Z,47.80
2019-03-26T22:05:06.489Z,47.90
2019-03-26T22:07:33.293Z,47.90
2019-03-26T22:09:59.675Z,47.90
2019-03-26T22:12:26.034Z,48.00
2019-03-26T22:14:52.785Z,48.00
2019-03-26T22:17:19.095Z,48.00
2019-03-26T22:19:45.363Z,48.10
2019-03-26T22:22:11.647Z,48.10
2019-03-26T22:24:37.913Z,48.20
2019-03-26T22:27:04.422Z,48.20
2019-03-26T22:29:30.931Z,48.30
2019-03-26T22:31:57.271Z,48.30
2019-03-26T22:34:23.622Z,48.40
2019-03-26T22:36:49.907Z,48.90
2019-03-26T22:39:16.275Z,48.50
2019-03-26T22:41:42.562Z,48.50
2019-03-26T22:44:08.831Z,48.60
2019-03-26T22:46:35.115Z,48.70
2019-03-26T22:49:01.483Z,48.70
2019-03-26T22:51:28.035Z,48.50
2019-03-26T22:53:54.705Z,48.80
2019-03-26T22:56:21.207Z,48.80
2019-03-26T22:58:47.586Z,48.80
2019-03-26T23:01:13.980Z,48.80
2019-03-26T23:03:42.334Z,48.80
2019-03-26T23:06:08.587Z,48.80
2019-03-26T23:08:35.246Z,48.90
2019-03-26T23:11:01.510Z,48.90
2019-03-26T23:13:28.009Z,48.90
2019-03-26T23:15:54.771Z,49.00
2019-03-26T23:18:21.358Z,49.00
2019-03-26T23:20:47.724Z,49.10
2019-03-26T23:23:14.204Z,49.20
2019-03-26T23:25:40.563Z,49.20
2019-03-26T23:28:08.379Z,49.20
2019-03-26T23:30:34.934Z,49.20
2019-03-26T23:33:01.523Z,49.30
2019-03-26T23:35:27.899Z,49.40
2019-03-26T23:37:54.695Z,49.30
2019-03-26T23:40:21.059Z,49.40
2019-03-26T23:42:47.521Z,49.40
2019-03-26T23:45:14.630Z,49.40
2019-03-26T23:47:40.900Z,49.50
2019-03-26T23:50:08.319Z,49.50
2019-03-26T23:52:34.683Z,49.50
2019-03-26T23:55:01.350Z,49.50
2019-03-26T23:57:27.704Z,49.60
2019-03-26T23:59:53.981Z,49.50
